Terminal Aerodrome Forecast
Issued by NWS Nashville, TN

Home | Current Version | Previous Version | Text Only | Print | Product List | Glossary On
Versions: 1 2 3 4 5 6 7 8 9 10 11 12 13 14 15 16
000
FTUS44 KOHX 272300
TAFCSV
TAF
KCSV 272326Z 2800/2824 35006KT P6SM SKC
     FM280400 04003KT P6SM OVC100
     FM280900 03003KT P6SM OVC050
     FM281100 06004KT P6SM OVC020=

USA.gov is the U.S. government's official web portal to all federal, state and local government web resources and services.